KKL weather

Public forecast

Using degrees Fahrenheit for public forecast. Weather courtesy of forecast.io.

Closest aviation weather report (METAR) to Karluk Lake Seaplane Base

Closest report is Akhiok Airport, 26.2 nm (48.5 km) S. Retrieved 2020/08/14 12:56 UTC (35 minutes ago):

PAKH 141256Z AUTO CLR A2999 RMK AO2 SLPNO PWINO FZRANO

Closest aviation forecast (TAF) to Karluk Lake Seaplane Base

Closest forecast is Kodiak Airport, 54.5 nm (100.9 km) ENE. Retrieved 2020/08/14 12:42 UTC (49 minutes ago):

TAF PADQ 141140Z 1412/1512 30006KT P6SM VCFG FEW020 FM142200 33007KT P6SM SKC FM150400 30012G20KT P6SM SKC